Flight Track Log - Related Links

Times and Time Zones

All times are in EDT time to prevent confusion due to time zone crossing. See the THY2256 flight status page for this flight to view local times or setup timezone preferences in your user account.


Time Position Orientation Groundspeed Altitude Reporting Facility
EDT Latitude Longitude Course Direction KTS MPH feet Rate Location/Type
Thu 05:24:00 PM 40.6737 29.3839 125° Southeast  Level Estimated
Thu 05:25:00 PM 40.6128 29.4959 126° Southeast  Level Estimated
Thu 05:26:00 PM 40.5517 29.6076 126° Southeast  Level Estimated
Thu 05:27:00 PM 40.4905 29.7192 126° Southeast  Level Estimated
Thu 05:28:00 PM 40.4292 29.8305 126° Southeast  Level Estimated
Thu 05:29:00 PM 40.3678 29.9417 126° Southeast  Level Estimated
Thu 05:30:00 PM 40.3063 30.0526 126° Southeast  Level Estimated
Thu 05:31:00 PM 40.2447 30.1633 126° Southeast  Level Estimated
Thu 05:32:00 PM 40.1830 30.2738 126° Southeast  Level Estimated
Thu 05:33:00 PM 40.1212 30.3842 126° Southeast  Level Estimated
Thu 05:34:00 PM 40.0593 30.4943 126° Southeast  Level Estimated
Thu 05:35:00 PM 39.9973 30.6042 126° Southeast  Level Estimated
Thu 05:36:00 PM 39.9352 30.7140 126° Southeast  Level Estimated
Thu 05:37:00 PM 39.8729 30.8235 126° Southeast  Level Estimated
Thu 05:38:00 PM 39.8106 30.9328 127° Southeast  Level Estimated
Thu 05:39:00 PM 39.7482 31.0420 127° Southeast  Level Estimated
Thu 05:40:00 PM 39.6856 31.1509 127° Southeast  Level Estimated
Thu 05:41:00 PM 39.6230 31.2596 127° Southeast  Level Estimated
Thu 05:42:00 PM 39.5602 31.3682 127° Southeast  Level Estimated
Thu 05:43:00 PM 39.4974 31.4765 127° Southeast  Level Estimated
Thu 05:44:00 PM 39.4345 31.5847 127° Southeast  Level Estimated
Thu 05:45:00 PM 39.3714 31.6926 127° Southeast  Level Estimated
Thu 05:46:00 PM 39.3083 31.8004 127° Southeast  Level Estimated
Thu 05:47:00 PM 39.2450 31.9079 127° Southeast  Level Estimated
Thu 05:48:00 PM 39.1817 32.0153 127° Southeast  Level Estimated
Thu 05:49:00 PM 39.1183 32.1225 127° Southeast  Level Estimated
Thu 05:50:00 PM 39.0547 32.2295 127° Southeast  Level Estimated
Thu 05:51:00 PM 38.9911 32.3362 127° Southeast  Level Estimated
Thu 05:52:00 PM 38.9274 32.4428 128° Southeast  Level Estimated
Thu 05:53:00 PM 38.8635 32.5493 128° Southeast  Level Estimated
Thu 05:54:00 PM 38.7996 32.6555 128° Southeast  Level Estimated
Thu 05:55:00 PM 38.7356 32.7615 128° Southeast  Level Estimated
Thu 05:56:00 PM 38.6715 32.8673 128° Southeast  Level Estimated
Thu 05:57:00 PM 38.6073 32.9730 128° Southeast  Level Estimated
Thu 05:58:00 PM 38.5430 33.0784 128° Southeast  Level Estimated
Thu 05:59:00 PM 38.4786 33.1837 128° Southeast  Level Estimated
Thu 06:00:00 PM 38.4141 33.2888 128° Southeast  Level Estimated
Thu 06:01:00 PM 38.3495 33.3937 128° Southeast  Level Estimated
Thu 06:02:00 PM 38.2848 33.4984 128° Southeast  Level Estimated
Thu 06:03:00 PM 38.2201 33.6029 128° Southeast  Level Estimated
Thu 06:04:00 PM 38.1552 33.7072 128° Southeast  Level Estimated
Thu 06:05:00 PM 38.0902 33.8114 128° Southeast  Level Estimated
Thu 06:06:00 PM 38.0252 33.9153 128° Southeast  Level Estimated
Thu 06:07:00 PM 37.9600 34.0191 129° Southeast  Level Estimated
Thu 06:08:00 PM 37.8948 34.1227 129° Southeast  Level Estimated
Thu 06:09:00 PM 37.8295 34.2261 129° Southeast  Level Estimated
Thu 06:10:00 PM 37.7641 34.3293 129° Southeast  Level Estimated
Thu 06:11:00 PM 37.6986 34.4324 129° Southeast  Level Estimated
Thu 06:12:00 PM 37.6330 34.5352 129° Southeast  Level Estimated
Thu 06:13:00 PM 37.5673 34.6379 129° Southeast  Level Estimated
Thu 06:14:00 PM 37.5015 34.7404 129° Southeast  Level Estimated
Thu 06:15:00 PM 37.4357 34.8427 129° Southeast  Level Estimated
Thu 06:16:00 PM 37.3697 34.9449 129° Southeast  Level Estimated
Thu 06:17:00 PM 37.3037 35.0468 129° Southeast  Level Estimated
Thu 06:18:00 PM 37.2376 35.1486 129° Southeast  Level Estimated
Thu 06:19:00 PM 37.1714 35.2502 129° Southeast  Level Estimated
Thu 06:20:00 PM 37.1051 35.3516 129° Southeast  Level Estimated
Thu 06:21:00 PM 37.0387 35.4529 129° Southeast  Level Estimated
Thu 06:22:00 PM 36.9722 35.5540 129° Southeast  Level Estimated
Thu 06:23:00 PM 36.9057 35.6549 130° Southeast  Level Estimated
Thu 06:24:00 PM 36.8391 35.7556 130° Southeast  Level Estimated
Thu 06:25:00 PM 36.7723 35.8561 130° Southeast  Level Estimated
Thu 06:26:00 PM 36.7055 35.9565 130° Southeast  Level Estimated
Thu 06:27:00 PM 36.6386 36.0567 130° Southeast  Level Estimated
Thu 06:28:00 PM 36.5735 36.1540 130° Southeast  Level Estimated
Thu 06:29:00 PM 36.5735 36.1540 North  Level Estimated
Thu 06:30:00 PM 36.5735 36.1540 North  Level Estimated
Thu 06:31:00 PM 36.5735 36.1540 North  Level Estimated
Thu 06:32:00 PM 36.5735 36.1540 North  Level Estimated
Thu 06:33:00 PM 36.5735 36.1540 North  Level Estimated
Thu 06:34:00 PM 36.5735 36.1540 North  Level Estimated
Thu 06:35:00 PM 36.5735 36.1540 North  Level Estimated
Thu 06:36:00 PM 36.5735 36.1540 North  Level Estimated

Login

Don't have an account? Register now (free) for customized features, flight alerts, and more!